sensor_id;sensor_type;location;lat;lon;timestamp;P1;durP1;ratioP1;P2;durP2;ratioP2
12758;SDS011;20944;47.048;15.390;2023-07-31T00:01:33;0.63;;;0.63;;
12758;SDS011;20944;47.048;15.390;2023-07-31T00:04:03;0.80;;;0.55;;
12758;SDS011;20944;47.048;15.390;2023-07-31T00:06:31;0.50;;;0.50;;
12758;SDS011;20944;47.048;15.390;2023-07-31T00:09:00;0.43;;;0.40;;
12758;SDS011;20944;47.048;15.390;2023-07-31T00:11:28;0.68;;;0.50;;
12758;SDS011;20944;47.048;15.390;2023-07-31T00:13:56;0.30;;;0.30;;
12758;SDS011;20944;47.048;15.390;2023-07-31T00:16:25;0.30;;;0.30;;
12758;SDS011;20944;47.048;15.390;2023-07-31T00:18:54;0.30;;;0.30;;
12758;SDS011;20944;47.048;15.390;2023-07-31T00:21:23;3.08;;;0.57;;
12758;SDS011;20944;47.048;15.390;2023-07-31T00:23:52;1.23;;;0.57;;
12758;SDS011;20944;47.048;15.390;2023-07-31T00:26:20;0.45;;;0.30;;
12758;SDS011;20944;47.048;15.390;2023-07-31T00:28:48;0.85;;;0.43;;
12758;SDS011;20944;47.048;15.390;2023-07-31T00:31:16;0.52;;;0.50;;
12758;SDS011;20944;47.048;15.390;2023-07-31T00:33:45;0.70;;;0.63;;
12758;SDS011;20944;47.048;15.390;2023-07-31T00:36:13;0.90;;;0.45;;
12758;SDS011;20944;47.048;15.390;2023-07-31T00:38:43;2.10;;;0.65;;
12758;SDS011;20944;47.048;15.390;2023-07-31T00:41:11;0.90;;;0.60;;
12758;SDS011;20944;47.048;15.390;2023-07-31T00:43:39;0.30;;;0.30;;
12758;SDS011;20944;47.048;15.390;2023-07-31T00:46:08;0.90;;;0.65;;
12758;SDS011;20944;47.048;15.390;2023-07-31T00:48:36;0.40;;;0.40;;
12758;SDS011;20944;47.048;15.390;2023-07-31T00:51:07;0.47;;;0.47;;
12758;SDS011;20944;47.048;15.390;2023-07-31T00:53:35;0.50;;;0.50;;
12758;SDS011;20944;47.048;15.390;2023-07-31T00:56:06;0.60;;;0.60;;
12758;SDS011;20944;47.048;15.390;2023-07-31T00:58:34;0.60;;;0.60;;
12758;SDS011;20944;47.048;15.390;2023-07-31T01:01:02;0.45;;;0.45;;
12758;SDS011;20944;47.048;15.390;2023-07-31T01:03:31;0.60;;;0.50;;
12758;SDS011;20944;47.048;15.390;2023-07-31T01:06:02;0.88;;;0.65;;
12758;SDS011;20944;47.048;15.390;2023-07-31T01:08:43;0.70;;;0.68;;
12758;SDS011;20944;47.048;15.390;2023-07-31T01:11:19;1.33;;;0.50;;
12758;SDS011;20944;47.048;15.390;2023-07-31T01:13:54;0.50;;;0.50;;
12758;SDS011;20944;47.048;15.390;2023-07-31T01:16:22;0.55;;;0.55;;
12758;SDS011;20944;47.048;15.390;2023-07-31T01:18:51;0.60;;;0.60;;
12758;SDS011;20944;47.048;15.390;2023-07-31T01:21:22;0.55;;;0.55;;
12758;SDS011;20944;47.048;15.390;2023-07-31T01:24:20;0.85;;;0.60;;
12758;SDS011;20944;47.048;15.390;2023-07-31T01:26:53;0.65;;;0.65;;
12758;SDS011;20944;47.048;15.390;2023-07-31T01:29:27;0.80;;;0.52;;
12758;SDS011;20944;47.048;15.390;2023-07-31T01:32:05;0.50;;;0.50;;
12758;SDS011;20944;47.048;15.390;2023-07-31T01:34:35;1.00;;;0.43;;
12758;SDS011;20944;47.048;15.390;2023-07-31T01:37:05;2.83;;;0.60;;
12758;SDS011;20944;47.048;15.390;2023-07-31T01:39:33;2.55;;;0.70;;
12758;SDS011;20944;47.048;15.390;2023-07-31T01:42:03;0.98;;;0.50;;
12758;SDS011;20944;47.048;15.390;2023-07-31T01:44:32;0.50;;;0.50;;
12758;SDS011;20944;47.048;15.390;2023-07-31T01:47:00;0.80;;;0.60;;
12758;SDS011;20944;47.048;15.390;2023-07-31T01:49:28;0.55;;;0.45;;
12758;SDS011;20944;47.048;15.390;2023-07-31T01:51:56;0.68;;;0.52;;
12758;SDS011;20944;47.048;15.390;2023-07-31T01:54:24;1.60;;;0.80;;
12758;SDS011;20944;47.048;15.390;2023-07-31T01:56:53;1.35;;;0.60;;
12758;SDS011;20944;47.048;15.390;2023-07-31T01:59:22;2.03;;;0.90;;
12758;SDS011;20944;47.048;15.390;2023-07-31T02:01:50;0.73;;;0.45;;
12758;SDS011;20944;47.048;15.390;2023-07-31T02:04:20;0.40;;;0.40;;
12758;SDS011;20944;47.048;15.390;2023-07-31T02:06:48;0.50;;;0.50;;
12758;SDS011;20944;47.048;15.390;2023-07-31T02:09:17;0.82;;;0.50;;
12758;SDS011;20944;47.048;15.390;2023-07-31T02:11:45;0.57;;;0.57;;
12758;SDS011;20944;47.048;15.390;2023-07-31T02:14:13;0.63;;;0.63;;
12758;SDS011;20944;47.048;15.390;2023-07-31T02:16:43;0.40;;;0.40;;
12758;SDS011;20944;47.048;15.390;2023-07-31T02:19:11;0.60;;;0.50;;
12758;SDS011;20944;47.048;15.390;2023-07-31T02:21:40;0.73;;;0.50;;
12758;SDS011;20944;47.048;15.390;2023-07-31T02:24:08;0.90;;;0.60;;
12758;SDS011;20944;47.048;15.390;2023-07-31T02:26:37;0.40;;;0.40;;
12758;SDS011;20944;47.048;15.390;2023-07-31T02:29:05;0.65;;;0.60;;
12758;SDS011;20944;47.048;15.390;2023-07-31T02:31:34;0.73;;;0.50;;
12758;SDS011;20944;47.048;15.390;2023-07-31T02:34:03;1.20;;;0.40;;
12758;SDS011;20944;47.048;15.390;2023-07-31T02:36:32;1.20;;;0.50;;
12758;SDS011;20944;47.048;15.390;2023-07-31T02:39:00;0.70;;;0.60;;
12758;SDS011;20944;47.048;15.390;2023-07-31T02:41:28;0.65;;;0.65;;
12758;SDS011;20944;47.048;15.390;2023-07-31T02:43:58;0.60;;;0.55;;
12758;SDS011;20944;47.048;15.390;2023-07-31T02:46:26;2.80;;;0.50;;
12758;SDS011;20944;47.048;15.390;2023-07-31T02:48:54;0.70;;;0.40;;
12758;SDS011;20944;47.048;15.390;2023-07-31T02:51:24;1.10;;;0.40;;
12758;SDS011;20944;47.048;15.390;2023-07-31T02:53:52;0.47;;;0.40;;
12758;SDS011;20944;47.048;15.390;2023-07-31T02:56:21;0.40;;;0.40;;
12758;SDS011;20944;47.048;15.390;2023-07-31T02:58:49;1.45;;;0.90;;
12758;SDS011;20944;47.048;15.390;2023-07-31T03:01:18;0.50;;;0.50;;
12758;SDS011;20944;47.048;15.390;2023-07-31T03:03:46;0.55;;;0.50;;
12758;SDS011;20944;47.048;15.390;2023-07-31T03:06:15;0.57;;;0.57;;
12758;SDS011;20944;47.048;15.390;2023-07-31T03:08:44;1.10;;;0.50;;
12758;SDS011;20944;47.048;15.390;2023-07-31T03:11:13;0.52;;;0.50;;
12758;SDS011;20944;47.048;15.390;2023-07-31T03:13:41;2.05;;;0.40;;
12758;SDS011;20944;47.048;15.390;2023-07-31T03:16:09;0.90;;;0.65;;
12758;SDS011;20944;47.048;15.390;2023-07-31T03:18:38;0.70;;;0.43;;
12758;SDS011;20944;47.048;15.390;2023-07-31T03:21:06;1.15;;;0.50;;
12758;SDS011;20944;47.048;15.390;2023-07-31T03:23:34;0.63;;;0.60;;
12758;SDS011;20944;47.048;15.390;2023-07-31T03:26:05;1.35;;;0.80;;
12758;SDS011;20944;47.048;15.390;2023-07-31T03:28:35;0.85;;;0.60;;
12758;SDS011;20944;47.048;15.390;2023-07-31T03:31:03;1.77;;;0.80;;
12758;SDS011;20944;47.048;15.390;2023-07-31T03:33:31;0.50;;;0.50;;
12758;SDS011;20944;47.048;15.390;2023-07-31T03:36:00;0.70;;;0.50;;
12758;SDS011;20944;47.048;15.390;2023-07-31T03:38:28;2.47;;;0.68;;
12758;SDS011;20944;47.048;15.390;2023-07-31T03:40:56;1.05;;;0.70;;
12758;SDS011;20944;47.048;15.390;2023-07-31T03:43:26;0.77;;;0.50;;
12758;SDS011;20944;47.048;15.390;2023-07-31T03:45:55;0.85;;;0.50;;
12758;SDS011;20944;47.048;15.390;2023-07-31T03:48:23;3.38;;;0.70;;
12758;SDS011;20944;47.048;15.390;2023-07-31T03:50:51;1.17;;;0.57;;
12758;SDS011;20944;47.048;15.390;2023-07-31T03:53:20;0.50;;;0.50;;
12758;SDS011;20944;47.048;15.390;2023-07-31T03:55:48;1.27;;;0.57;;
12758;SDS011;20944;47.048;15.390;2023-07-31T03:58:16;0.45;;;0.30;;
12758;SDS011;20944;47.048;15.390;2023-07-31T04:00:46;0.70;;;0.70;;
12758;SDS011;20944;47.048;15.390;2023-07-31T04:03:15;0.82;;;0.40;;
12758;SDS011;20944;47.048;15.390;2023-07-31T04:05:44;0.52;;;0.40;;
12758;SDS011;20944;47.048;15.390;2023-07-31T04:08:12;0.90;;;0.50;;
12758;SDS011;20944;47.048;15.390;2023-07-31T04:10:40;1.05;;;0.40;;
12758;SDS011;20944;47.048;15.390;2023-07-31T04:13:08;0.85;;;0.70;;
12758;SDS011;20944;47.048;15.390;2023-07-31T04:15:36;0.55;;;0.55;;
12758;SDS011;20944;47.048;15.390;2023-07-31T04:18:06;3.40;;;0.55;;
12758;SDS011;20944;47.048;15.390;2023-07-31T04:20:34;0.80;;;0.40;;
12758;SDS011;20944;47.048;15.390;2023-07-31T04:23:03;0.90;;;0.60;;
12758;SDS011;20944;47.048;15.390;2023-07-31T04:25:31;0.50;;;0.50;;
12758;SDS011;20944;47.048;15.390;2023-07-31T04:28:01;1.15;;;0.57;;
12758;SDS011;20944;47.048;15.390;2023-07-31T04:30:29;2.05;;;0.80;;
12758;SDS011;20944;47.048;15.390;2023-07-31T04:32:57;1.33;;;0.77;;
12758;SDS011;20944;47.048;15.390;2023-07-31T04:35:27;0.50;;;0.50;;
12758;SDS011;20944;47.048;15.390;2023-07-31T04:37:56;0.88;;;0.55;;
12758;SDS011;20944;47.048;15.390;2023-07-31T04:40:24;2.05;;;0.50;;
12758;SDS011;20944;47.048;15.390;2023-07-31T04:42:52;2.55;;;0.75;;
12758;SDS011;20944;47.048;15.390;2023-07-31T04:45:20;0.60;;;0.60;;
12758;SDS011;20944;47.048;15.390;2023-07-31T04:47:49;1.08;;;0.98;;
12758;SDS011;20944;47.048;15.390;2023-07-31T04:50:17;1.17;;;0.80;;
12758;SDS011;20944;47.048;15.390;2023-07-31T04:52:47;0.70;;;0.70;;
12758;SDS011;20944;47.048;15.390;2023-07-31T04:55:15;2.03;;;1.00;;
12758;SDS011;20944;47.048;15.390;2023-07-31T04:57:43;2.88;;;0.80;;
12758;SDS011;20944;47.048;15.390;2023-07-31T05:00:12;2.65;;;1.10;;
12758;SDS011;20944;47.048;15.390;2023-07-31T05:02:40;1.33;;;1.02;;
12758;SDS011;20944;47.048;15.390;2023-07-31T05:05:08;1.80;;;0.93;;
12758;SDS011;20944;47.048;15.390;2023-07-31T05:07:37;1.33;;;1.23;;
12758;SDS011;20944;47.048;15.390;2023-07-31T05:10:07;0.85;;;0.80;;
12758;SDS011;20944;47.048;15.390;2023-07-31T05:12:35;0.90;;;0.90;;
12758;SDS011;20944;47.048;15.390;2023-07-31T05:15:04;1.23;;;0.90;;
12758;SDS011;20944;47.048;15.390;2023-07-31T05:17:33;1.35;;;0.88;;
12758;SDS011;20944;47.048;15.390;2023-07-31T05:20:02;1.75;;;1.17;;
12758;SDS011;20944;47.048;15.390;2023-07-31T05:22:30;1.30;;;0.90;;
12758;SDS011;20944;47.048;15.390;2023-07-31T05:24:58;2.30;;;1.10;;
12758;SDS011;20944;47.048;15.390;2023-07-31T05:27:28;1.65;;;0.90;;
12758;SDS011;20944;47.048;15.390;2023-07-31T05:29:57;2.65;;;1.15;;
12758;SDS011;20944;47.048;15.390;2023-07-31T05:32:26;3.00;;;1.40;;
12758;SDS011;20944;47.048;15.390;2023-07-31T05:34:54;2.15;;;1.98;;
12758;SDS011;20944;47.048;15.390;2023-07-31T05:37:23;3.08;;;2.17;;
12758;SDS011;20944;47.048;15.390;2023-07-31T05:39:51;2.60;;;2.13;;
12758;SDS011;20944;47.048;15.390;2023-07-31T05:42:19;3.95;;;2.13;;
12758;SDS011;20944;47.048;15.390;2023-07-31T05:44:49;7.22;;;2.67;;
12758;SDS011;20944;47.048;15.390;2023-07-31T05:47:17;2.88;;;1.98;;
12758;SDS011;20944;47.048;15.390;2023-07-31T05:49:45;3.47;;;2.15;;
12758;SDS011;20944;47.048;15.390;2023-07-31T05:52:14;1.88;;;1.77;;
12758;SDS011;20944;47.048;15.390;2023-07-31T05:54:42;2.42;;;1.88;;
12758;SDS011;20944;47.048;15.390;2023-07-31T05:57:10;7.20;;;1.83;;
12758;SDS011;20944;47.048;15.390;2023-07-31T05:59:38;3.95;;;1.58;;
12758;SDS011;20944;47.048;15.390;2023-07-31T06:02:08;2.40;;;1.60;;
12758;SDS011;20944;47.048;15.390;2023-07-31T06:04:36;2.33;;;1.30;;
12758;SDS011;20944;47.048;15.390;2023-07-31T06:07:05;1.58;;;1.48;;
12758;SDS011;20944;47.048;15.390;2023-07-31T06:09:34;1.10;;;1.00;;
12758;SDS011;20944;47.048;15.390;2023-07-31T06:12:03;3.58;;;1.20;;
12758;SDS011;20944;47.048;15.390;2023-07-31T06:14:32;6.45;;;2.65;;
12758;SDS011;20944;47.048;15.390;2023-07-31T06:17:00;1.77;;;1.67;;
12758;SDS011;20944;47.048;15.390;2023-07-31T06:19:30;1.70;;;1.23;;
12758;SDS011;20944;47.048;15.390;2023-07-31T06:21:58;3.65;;;1.55;;
12758;SDS011;20944;47.048;15.390;2023-07-31T06:24:26;2.95;;;1.42;;
12758;SDS011;20944;47.048;15.390;2023-07-31T06:26:56;1.42;;;1.10;;
12758;SDS011;20944;47.048;15.390;2023-07-31T06:29:24;1.80;;;1.52;;
12758;SDS011;20944;47.048;15.390;2023-07-31T06:31:52;1.27;;;1.10;;
12758;SDS011;20944;47.048;15.390;2023-07-31T06:34:21;3.85;;;1.67;;
12758;SDS011;20944;47.048;15.390;2023-07-31T06:36:50;1.42;;;1.27;;
12758;SDS011;20944;47.048;15.390;2023-07-31T06:39:19;1.63;;;1.42;;
12758;SDS011;20944;47.048;15.390;2023-07-31T06:41:47;3.20;;;1.60;;
12758;SDS011;20944;47.048;15.390;2023-07-31T06:44:16;2.28;;;1.60;;
12758;SDS011;20944;47.048;15.390;2023-07-31T06:46:44;3.53;;;1.40;;
12758;SDS011;20944;47.048;15.390;2023-07-31T06:49:12;1.63;;;1.48;;
12758;SDS011;20944;47.048;15.390;2023-07-31T06:51:42;2.20;;;1.85;;
12758;SDS011;20944;47.048;15.390;2023-07-31T06:54:13;3.40;;;1.67;;
12758;SDS011;20944;47.048;15.390;2023-07-31T06:56:41;2.95;;;1.83;;
12758;SDS011;20944;47.048;15.390;2023-07-31T06:59:10;3.50;;;1.60;;
12758;SDS011;20944;47.048;15.390;2023-07-31T07:01:38;1.38;;;1.13;;
12758;SDS011;20944;47.048;15.390;2023-07-31T07:04:06;1.08;;;1.00;;
12758;SDS011;20944;47.048;15.390;2023-07-31T07:06:34;1.25;;;1.10;;
12758;SDS011;20944;47.048;15.390;2023-07-31T07:09:04;1.92;;;1.10;;
12758;SDS011;20944;47.048;15.390;2023-07-31T07:11:33;1.60;;;1.27;;
12758;SDS011;20944;47.048;15.390;2023-07-31T07:14:03;2.58;;;1.10;;
12758;SDS011;20944;47.048;15.390;2023-07-31T07:16:32;2.10;;;1.10;;
12758;SDS011;20944;47.048;15.390;2023-07-31T07:19:00;0.80;;;0.80;;
12758;SDS011;20944;47.048;15.390;2023-07-31T07:21:30;0.95;;;0.90;;
12758;SDS011;20944;47.048;15.390;2023-07-31T07:23:59;0.93;;;0.80;;
12758;SDS011;20944;47.048;15.390;2023-07-31T07:26:27;0.93;;;0.80;;
12758;SDS011;20944;47.048;15.390;2023-07-31T07:28:57;1.58;;;0.85;;
12758;SDS011;20944;47.048;15.390;2023-07-31T07:31:27;1.40;;;0.90;;
12758;SDS011;20944;47.048;15.390;2023-07-31T07:33:56;0.70;;;0.70;;
12758;SDS011;20944;47.048;15.390;2023-07-31T07:36:24;0.93;;;0.93;;
12758;SDS011;20944;47.048;15.390;2023-07-31T07:38:52;0.88;;;0.63;;
12758;SDS011;20944;47.048;15.390;2023-07-31T07:41:21;2.22;;;0.90;;
12758;SDS011;20944;47.048;15.390;2023-07-31T07:43:49;1.63;;;0.80;;
12758;SDS011;20944;47.048;15.390;2023-07-31T07:46:19;2.83;;;0.80;;
12758;SDS011;20944;47.048;15.390;2023-07-31T07:48:48;1.25;;;1.08;;
12758;SDS011;20944;47.048;15.390;2023-07-31T07:51:16;0.85;;;0.70;;
12758;SDS011;20944;47.048;15.390;2023-07-31T07:53:46;0.60;;;0.60;;
12758;SDS011;20944;47.048;15.390;2023-07-31T07:56:14;0.77;;;0.77;;
12758;SDS011;20944;47.048;15.390;2023-07-31T07:58:42;0.80;;;0.80;;
12758;SDS011;20944;47.048;15.390;2023-07-31T08:01:10;0.82;;;0.82;;
12758;SDS011;20944;47.048;15.390;2023-07-31T08:03:40;0.80;;;0.75;;
12758;SDS011;20944;47.048;15.390;2023-07-31T08:06:08;0.70;;;0.70;;
12758;SDS011;20944;47.048;15.390;2023-07-31T08:08:37;1.15;;;1.05;;
12758;SDS011;20944;47.048;15.390;2023-07-31T08:11:06;1.05;;;0.88;;
12758;SDS011;20944;47.048;15.390;2023-07-31T08:13:35;1.15;;;0.70;;
12758;SDS011;20944;47.048;15.390;2023-07-31T08:16:04;1.15;;;0.82;;
12758;SDS011;20944;47.048;15.390;2023-07-31T08:18:32;0.77;;;0.77;;
12758;SDS011;20944;47.048;15.390;2023-07-31T08:21:03;1.13;;;0.77;;
12758;SDS011;20944;47.048;15.390;2023-07-31T08:23:31;0.73;;;0.70;;
12758;SDS011;20944;47.048;15.390;2023-07-31T08:26:00;0.80;;;0.60;;
12758;SDS011;20944;47.048;15.390;2023-07-31T08:28:28;0.75;;;0.75;;
12758;SDS011;20944;47.048;15.390;2023-07-31T08:30:57;0.77;;;0.50;;
12758;SDS011;20944;47.048;15.390;2023-07-31T08:33:25;2.03;;;0.70;;
12758;SDS011;20944;47.048;15.390;2023-07-31T08:35:53;0.60;;;0.60;;
12758;SDS011;20944;47.048;15.390;2023-07-31T08:38:23;0.82;;;0.82;;
12758;SDS011;20944;47.048;15.390;2023-07-31T08:40:52;0.73;;;0.57;;
12758;SDS011;20944;47.048;15.390;2023-07-31T08:43:20;1.52;;;0.57;;
12758;SDS011;20944;47.048;15.390;2023-07-31T08:45:53;0.68;;;0.68;;
12758;SDS011;20944;47.048;15.390;2023-07-31T08:48:22;0.60;;;0.60;;
12758;SDS011;20944;47.048;15.390;2023-07-31T08:50:51;0.70;;;0.68;;
12758;SDS011;20944;47.048;15.390;2023-07-31T08:53:20;0.82;;;0.82;;
12758;SDS011;20944;47.048;15.390;2023-07-31T08:55:50;0.50;;;0.50;;
12758;SDS011;20944;47.048;15.390;2023-07-31T08:58:21;0.80;;;0.80;;
12758;SDS011;20944;47.048;15.390;2023-07-31T09:00:51;0.60;;;0.60;;
12758;SDS011;20944;47.048;15.390;2023-07-31T09:03:21;0.60;;;0.60;;
12758;SDS011;20944;47.048;15.390;2023-07-31T09:05:52;0.80;;;0.73;;
12758;SDS011;20944;47.048;15.390;2023-07-31T09:08:22;1.45;;;0.77;;
12758;SDS011;20944;47.048;15.390;2023-07-31T09:10:54;1.30;;;0.70;;
12758;SDS011;20944;47.048;15.390;2023-07-31T09:13:27;1.77;;;0.80;;
12758;SDS011;20944;47.048;15.390;2023-07-31T09:15:56;0.85;;;0.85;;
12758;SDS011;20944;47.048;15.390;2023-07-31T09:18:24;1.38;;;0.88;;
12758;SDS011;20944;47.048;15.390;2023-07-31T09:21:02;1.38;;;0.90;;
12758;SDS011;20944;47.048;15.390;2023-07-31T09:23:40;0.93;;;0.93;;
12758;SDS011;20944;47.048;15.390;2023-07-31T09:26:11;0.85;;;0.82;;
12758;SDS011;20944;47.048;15.390;2023-07-31T09:28:56;1.02;;;0.88;;
12758;SDS011;20944;47.048;15.390;2023-07-31T09:31:38;0.50;;;0.50;;
12758;SDS011;20944;47.048;15.390;2023-07-31T09:34:07;0.82;;;0.82;;
12758;SDS011;20944;47.048;15.390;2023-07-31T09:36:39;1.10;;;1.00;;
12758;SDS011;20944;47.048;15.390;2023-07-31T09:39:09;0.60;;;0.60;;
12758;SDS011;20944;47.048;15.390;2023-07-31T09:41:39;0.90;;;0.90;;
12758;SDS011;20944;47.048;15.390;2023-07-31T09:44:10;1.20;;;1.10;;
12758;SDS011;20944;47.048;15.390;2023-07-31T09:46:38;1.30;;;1.00;;
12758;SDS011;20944;47.048;15.390;2023-07-31T09:49:07;0.75;;;0.73;;
12758;SDS011;20944;47.048;15.390;2023-07-31T09:51:36;1.20;;;1.10;;
12758;SDS011;20944;47.048;15.390;2023-07-31T09:54:09;0.68;;;0.68;;
12758;SDS011;20944;47.048;15.390;2023-07-31T09:56:44;1.02;;;0.80;;
12758;SDS011;20944;47.048;15.390;2023-07-31T09:59:17;1.02;;;0.80;;
12758;SDS011;20944;47.048;15.390;2023-07-31T10:01:50;0.93;;;0.65;;
12758;SDS011;20944;47.048;15.390;2023-07-31T10:04:20;1.15;;;0.88;;
12758;SDS011;20944;47.048;15.390;2023-07-31T10:06:55;0.88;;;0.80;;
12758;SDS011;20944;47.048;15.390;2023-07-31T10:09:24;1.02;;;0.93;;
12758;SDS011;20944;47.048;15.390;2023-07-31T10:12:00;0.70;;;0.70;;
12758;SDS011;20944;47.048;15.390;2023-07-31T10:14:33;1.17;;;1.00;;
12758;SDS011;20944;47.048;15.390;2023-07-31T10:17:01;0.90;;;0.90;;
12758;SDS011;20944;47.048;15.390;2023-07-31T10:19:32;2.08;;;1.00;;
12758;SDS011;20944;47.048;15.390;2023-07-31T10:22:02;1.85;;;0.88;;
12758;SDS011;20944;47.048;15.390;2023-07-31T10:24:32;2.10;;;1.27;;
12758;SDS011;20944;47.048;15.390;2023-07-31T10:27:02;0.70;;;0.70;;
12758;SDS011;20944;47.048;15.390;2023-07-31T10:29:32;0.95;;;0.95;;
12758;SDS011;20944;47.048;15.390;2023-07-31T10:32:01;0.90;;;0.90;;
12758;SDS011;20944;47.048;15.390;2023-07-31T10:34:33;1.20;;;1.10;;
12758;SDS011;20944;47.048;15.390;2023-07-31T10:37:23;1.33;;;1.23;;
12758;SDS011;20944;47.048;15.390;2023-07-31T10:39:56;1.10;;;1.10;;
12758;SDS011;20944;47.048;15.390;2023-07-31T10:42:31;1.27;;;1.00;;
12758;SDS011;20944;47.048;15.390;2023-07-31T10:45:02;0.88;;;0.88;;
12758;SDS011;20944;47.048;15.390;2023-07-31T10:47:36;0.80;;;0.80;;
12758;SDS011;20944;47.048;15.390;2023-07-31T10:50:12;1.17;;;1.08;;
12758;SDS011;20944;47.048;15.390;2023-07-31T10:52:48;1.88;;;1.05;;
12758;SDS011;20944;47.048;15.390;2023-07-31T10:55:27;1.08;;;0.90;;
12758;SDS011;20944;47.048;15.390;2023-07-31T10:58:05;1.05;;;1.02;;
12758;SDS011;20944;47.048;15.390;2023-07-31T11:00:36;0.90;;;0.90;;
12758;SDS011;20944;47.048;15.390;2023-07-31T11:03:06;0.80;;;0.80;;
12758;SDS011;20944;47.048;15.390;2023-07-31T11:05:50;1.27;;;0.77;;
12758;SDS011;20944;47.048;15.390;2023-07-31T11:08:22;0.98;;;0.98;;
12758;SDS011;20944;47.048;15.390;2023-07-31T11:11:04;0.90;;;0.90;;
12758;SDS011;20944;47.048;15.390;2023-07-31T11:13:39;1.15;;;1.05;;
12758;SDS011;20944;47.048;15.390;2023-07-31T11:16:08;1.10;;;1.10;;
12758;SDS011;20944;47.048;15.390;2023-07-31T11:18:38;1.25;;;1.10;;
12758;SDS011;20944;47.048;15.390;2023-07-31T11:21:08;1.02;;;1.02;;
12758;SDS011;20944;47.048;15.390;2023-07-31T11:23:39;0.80;;;0.80;;
12758;SDS011;20944;47.048;15.390;2023-07-31T11:26:07;1.13;;;0.82;;
12758;SDS011;20944;47.048;15.390;2023-07-31T11:28:37;1.67;;;1.05;;
12758;SDS011;20944;47.048;15.390;2023-07-31T11:31:09;1.00;;;0.93;;
12758;SDS011;20944;47.048;15.390;2023-07-31T11:33:38;0.98;;;0.98;;
12758;SDS011;20944;47.048;15.390;2023-07-31T11:36:06;0.90;;;0.90;;
12758;SDS011;20944;47.048;15.390;2023-07-31T11:38:41;1.65;;;1.20;;
12758;SDS011;20944;47.048;15.390;2023-07-31T11:41:10;0.70;;;0.70;;
12758;SDS011;20944;47.048;15.390;2023-07-31T11:43:39;1.00;;;1.00;;
12758;SDS011;20944;47.048;15.390;2023-07-31T11:46:08;1.25;;;1.15;;
12758;SDS011;20944;47.048;15.390;2023-07-31T11:48:37;4.25;;;1.27;;
12758;SDS011;20944;47.048;15.390;2023-07-31T11:51:06;4.32;;;1.20;;
12758;SDS011;20944;47.048;15.390;2023-07-31T11:53:38;1.00;;;1.00;;
12758;SDS011;20944;47.048;15.390;2023-07-31T11:56:09;1.52;;;1.08;;
12758;SDS011;20944;47.048;15.390;2023-07-31T11:58:41;1.20;;;1.20;;
12758;SDS011;20944;47.048;15.390;2023-07-31T12:01:13;0.90;;;0.90;;
12758;SDS011;20944;47.048;15.390;2023-07-31T12:03:44;1.00;;;1.00;;
12758;SDS011;20944;47.048;15.390;2023-07-31T12:06:13;1.10;;;1.10;;
12758;SDS011;20944;47.048;15.390;2023-07-31T12:08:41;0.85;;;0.77;;
12758;SDS011;20944;47.048;15.390;2023-07-31T12:11:10;1.02;;;1.00;;
12758;SDS011;20944;47.048;15.390;2023-07-31T12:13:38;1.15;;;1.05;;
12758;SDS011;20944;47.048;15.390;2023-07-31T12:16:08;1.15;;;0.73;;
12758;SDS011;20944;47.048;15.390;2023-07-31T12:18:37;1.15;;;1.05;;
12758;SDS011;20944;47.048;15.390;2023-07-31T12:21:08;0.90;;;0.90;;
12758;SDS011;20944;47.048;15.390;2023-07-31T12:23:38;1.00;;;1.00;;
12758;SDS011;20944;47.048;15.390;2023-07-31T12:26:09;1.00;;;1.00;;
12758;SDS011;20944;47.048;15.390;2023-07-31T12:28:40;2.72;;;1.17;;
12758;SDS011;20944;47.048;15.390;2023-07-31T12:31:11;1.00;;;1.00;;
12758;SDS011;20944;47.048;15.390;2023-07-31T12:33:40;1.00;;;1.00;;
12758;SDS011;20944;47.048;15.390;2023-07-31T12:36:10;1.20;;;1.10;;
12758;SDS011;20944;47.048;15.390;2023-07-31T12:38:40;1.10;;;1.00;;
12758;SDS011;20944;47.048;15.390;2023-07-31T12:41:09;0.93;;;0.90;;
12758;SDS011;20944;47.048;15.390;2023-07-31T12:43:39;2.85;;;1.20;;
12758;SDS011;20944;47.048;15.390;2023-07-31T12:46:09;1.10;;;1.00;;
12758;SDS011;20944;47.048;15.390;2023-07-31T12:48:39;1.08;;;1.08;;
12758;SDS011;20944;47.048;15.390;2023-07-31T12:51:08;1.42;;;1.13;;
12758;SDS011;20944;47.048;15.390;2023-07-31T12:53:36;1.38;;;1.25;;
12758;SDS011;20944;47.048;15.390;2023-07-31T12:56:04;0.95;;;0.95;;
12758;SDS011;20944;47.048;15.390;2023-07-31T12:58:33;2.15;;;0.63;;
12758;SDS011;20944;47.048;15.390;2023-07-31T13:01:01;1.58;;;0.88;;
12758;SDS011;20944;47.048;15.390;2023-07-31T13:03:31;1.00;;;1.00;;
12758;SDS011;20944;47.048;15.390;2023-07-31T13:05:59;1.33;;;1.30;;
12758;SDS011;20944;47.048;15.390;2023-07-31T13:08:28;1.63;;;1.17;;
12758;SDS011;20944;47.048;15.390;2023-07-31T13:10:56;1.50;;;1.13;;
12758;SDS011;20944;47.048;15.390;2023-07-31T13:13:24;1.17;;;0.90;;
12758;SDS011;20944;47.048;15.390;2023-07-31T13:15:55;1.63;;;1.52;;
12758;SDS011;20944;47.048;15.390;2023-07-31T13:18:23;0.90;;;0.90;;
12758;SDS011;20944;47.048;15.390;2023-07-31T13:20:53;0.80;;;0.80;;
12758;SDS011;20944;47.048;15.390;2023-07-31T13:23:21;1.35;;;0.90;;
12758;SDS011;20944;47.048;15.390;2023-07-31T13:25:49;0.80;;;0.80;;
12758;SDS011;20944;47.048;15.390;2023-07-31T13:28:18;1.35;;;1.23;;
12758;SDS011;20944;47.048;15.390;2023-07-31T13:30:46;1.10;;;0.93;;
12758;SDS011;20944;47.048;15.390;2023-07-31T13:33:14;1.15;;;1.08;;
12758;SDS011;20944;47.048;15.390;2023-07-31T13:36:02;0.88;;;0.88;;
12758;SDS011;20944;47.048;15.390;2023-07-31T13:38:31;1.33;;;1.23;;
12758;SDS011;20944;47.048;15.390;2023-07-31T13:40:59;1.10;;;1.10;;
12758;SDS011;20944;47.048;15.390;2023-07-31T13:43:28;1.27;;;1.17;;
12758;SDS011;20944;47.048;15.390;2023-07-31T13:45:56;0.90;;;0.90;;
12758;SDS011;20944;47.048;15.390;2023-07-31T13:48:29;1.20;;;1.00;;
12758;SDS011;20944;47.048;15.390;2023-07-31T13:50:58;0.80;;;0.80;;
12758;SDS011;20944;47.048;15.390;2023-07-31T13:53:28;1.30;;;0.93;;
12758;SDS011;20944;47.048;15.390;2023-07-31T13:55:56;1.95;;;1.15;;
12758;SDS011;20944;47.048;15.390;2023-07-31T13:58:24;1.13;;;1.02;;
12758;SDS011;20944;47.048;15.390;2023-07-31T14:00:52;0.88;;;0.88;;
12758;SDS011;20944;47.048;15.390;2023-07-31T14:03:21;1.20;;;1.10;;
12758;SDS011;20944;47.048;15.390;2023-07-31T14:05:51;0.88;;;0.88;;
12758;SDS011;20944;47.048;15.390;2023-07-31T14:08:20;0.90;;;0.90;;
12758;SDS011;20944;47.048;15.390;2023-07-31T14:10:49;1.42;;;1.00;;
12758;SDS011;20944;47.048;15.390;2023-07-31T14:13:18;1.17;;;1.17;;
12758;SDS011;20944;47.048;15.390;2023-07-31T14:15:46;0.80;;;0.80;;
12758;SDS011;20944;47.048;15.390;2023-07-31T14:18:14;1.02;;;1.02;;
12758;SDS011;20944;47.048;15.390;2023-07-31T14:20:43;1.20;;;1.20;;
12758;SDS011;20944;47.048;15.390;2023-07-31T14:23:11;0.98;;;0.98;;
12758;SDS011;20944;47.048;15.390;2023-07-31T14:25:39;1.00;;;1.00;;
12758;SDS011;20944;47.048;15.390;2023-07-31T14:28:09;1.15;;;1.05;;
12758;SDS011;20944;47.048;15.390;2023-07-31T14:30:38;1.17;;;1.08;;
12758;SDS011;20944;47.048;15.390;2023-07-31T14:33:06;0.80;;;0.80;;
12758;SDS011;20944;47.048;15.390;2023-07-31T14:35:35;1.10;;;1.10;;
12758;SDS011;20944;47.048;15.390;2023-07-31T14:38:03;1.20;;;1.10;;
12758;SDS011;20944;47.048;15.390;2023-07-31T14:40:31;3.60;;;1.23;;
12758;SDS011;20944;47.048;15.390;2023-07-31T14:43:00;0.82;;;0.82;;
12758;SDS011;20944;47.048;15.390;2023-07-31T14:45:30;1.33;;;1.20;;
12758;SDS011;20944;47.048;15.390;2023-07-31T14:47:58;1.15;;;0.90;;